createdAt,value
2023-02-08T00:00:20.780Z,29.17
2023-02-08T00:05:23.564Z,31.85
2023-02-08T00:10:26.300Z,27.50
2023-02-08T00:15:30.488Z,30.08
2023-02-08T00:20:33.242Z,30.73
2023-02-08T00:25:37.030Z,29.33
2023-02-08T00:30:42.144Z,36.85
2023-02-08T00:35:45.211Z,28.17
2023-02-08T00:40:47.971Z,27.95
2023-02-08T00:45:56.534Z,30.92
2023-02-08T00:51:02.310Z,32.03
2023-02-08T00:56:05.750Z,27.30
2023-02-08T01:01:10.719Z,26.52
2023-02-08T01:06:16.631Z,27.95
2023-02-08T01:11:25.085Z,29.77
2023-02-08T01:16:31.567Z,26.63
2023-02-08T01:21:38.595Z,30.42
2023-02-08T01:26:41.418Z,28.02
2023-02-08T01:31:46.380Z,27.35
2023-02-08T01:36:49.322Z,24.40
2023-02-08T01:41:52.096Z,25.60
2023-02-08T01:46:56.272Z,28.58
2023-02-08T01:52:02.650Z,31.73
2023-02-08T01:57:06.027Z,29.10
2023-02-08T02:02:14.654Z,29.55
2023-02-08T02:07:19.172Z,28.50
2023-02-08T02:12:22.641Z,26.48
2023-02-08T02:17:28.019Z,30.13
2023-02-08T02:22:59.689Z,26.65
2023-02-08T02:28:23.808Z,27.27
2023-02-08T02:33:55.540Z,28.52
2023-02-08T02:39:06.722Z,30.17
2023-02-08T02:44:19.778Z,31.33
2023-02-08T02:49:32.562Z,25.48
2023-02-08T02:54:40.829Z,26.95
2023-02-08T02:59:45.285Z,28.25
2023-02-08T03:04:52.839Z,27.83
2023-02-08T03:10:06.992Z,29.90
2023-02-08T03:15:23.559Z,29.58
2023-02-08T03:20:32.950Z,27.90
2023-02-08T03:25:45.570Z,32.15
2023-02-08T03:30:54.875Z,26.25
2023-02-08T03:36:04.528Z,29.35
2023-02-08T03:41:11.733Z,25.77
2023-02-08T03:46:18.583Z,28.50
2023-02-08T03:51:24.371Z,26.30
2023-02-08T03:56:36.589Z,29.50
2023-02-08T04:06:45.140Z,30.45
2023-02-08T04:11:47.926Z,27.83
2023-02-08T04:16:50.772Z,25.77
2023-02-08T04:21:55.192Z,28.13
2023-02-08T04:26:57.936Z,26.70
2023-02-08T04:32:01.081Z,28.02
2023-02-08T04:37:05.243Z,28.45
2023-02-08T04:42:08.088Z,25.48
2023-02-08T04:47:10.895Z,27.80
2023-02-08T04:52:15.027Z,23.05
2023-02-08T04:57:17.814Z,26.73
2023-02-08T05:02:20.684Z,26.63
2023-02-08T05:07:25.263Z,26.70
2023-02-08T05:12:28.178Z,26.63
2023-02-08T05:17:30.952Z,27.02
2023-02-08T05:22:35.224Z,28.63
2023-02-08T05:27:38.507Z,29.10
2023-02-08T05:32:41.287Z,27.00
2023-02-08T05:37:45.426Z,26.67
2023-02-08T05:42:48.578Z,26.17
2023-02-08T05:47:51.365Z,25.00
2023-02-08T05:52:55.462Z,27.58
2023-02-08T05:57:58.218Z,24.00
2023-02-08T06:03:01.009Z,26.60
2023-02-08T06:08:05.499Z,26.40
2023-02-08T06:13:08.263Z,23.45
2023-02-08T06:18:11.746Z,28.50
2023-02-08T06:23:15.879Z,27.35
2023-02-08T06:28:18.827Z,26.55
2023-02-08T06:33:21.586Z,27.38
2023-02-08T06:38:25.727Z,29.98
2023-02-08T06:43:28.548Z,28.98
2023-02-08T06:48:31.367Z,29.27
2023-02-08T06:53:35.476Z,28.55
2023-02-08T06:58:38.758Z,28.50
2023-02-08T07:03:42.612Z,29.92
2023-02-08T07:08:47.215Z,26.27
2023-02-08T07:13:51.319Z,38.90
2023-02-08T07:18:54.090Z,20.95
2023-02-08T07:23:58.254Z,16.92
2023-02-08T07:29:01.249Z,14.77
2023-02-08T07:40:34.160Z,22.52
2023-02-08T07:45:38.550Z,28.65
2023-02-08T07:50:41.546Z,25.25
2023-02-08T07:55:47.780Z,26.30
2023-02-08T08:00:50.640Z,27.73
2023-02-08T08:05:55.013Z,24.73
2023-02-08T08:10:59.227Z,25.73
2023-02-08T08:16:01.967Z,25.85
2023-02-08T08:21:05.351Z,24.35
2023-02-08T08:26:13.838Z,26.65
2023-02-08T08:31:18.950Z,27.15
2023-02-08T08:36:21.788Z,22.45
2023-02-08T08:41:27.247Z,22.20
2023-02-08T08:46:30.058Z,23.65
2023-02-08T08:51:35.272Z,24.73
2023-02-08T08:56:39.426Z,23.00
2023-02-08T09:01:42.777Z,25.73
2023-02-08T09:06:45.594Z,22.13
2023-02-08T09:11:50.601Z,25.83
2023-02-08T09:16:53.720Z,24.27
2023-02-08T09:21:57.862Z,27.60
2023-02-08T09:27:02.199Z,27.42
2023-02-08T09:32:05.078Z,22.85
2023-02-08T09:37:07.856Z,25.08
2023-02-08T09:42:29.264Z,26.65
2023-02-08T09:47:36.313Z,22.65
2023-02-08T09:52:45.667Z,22.98
2023-02-08T09:57:53.016Z,26.17
2023-02-08T10:03:00.782Z,22.90
2023-02-08T10:08:03.646Z,24.48
2023-02-08T10:13:25.665Z,24.05
2023-02-08T10:18:45.044Z,21.60
2023-02-08T10:24:06.714Z,23.73
2023-02-08T10:29:26.796Z,21.70
2023-02-08T10:34:43.436Z,20.58
2023-02-08T10:39:47.398Z,20.63
2023-02-08T10:45:18.835Z,21.67
2023-02-08T10:50:35.267Z,22.15
2023-02-08T10:55:44.763Z,19.00
2023-02-08T11:00:51.820Z,19.85
2023-02-08T11:05:55.456Z,17.33
2023-02-08T11:11:00.931Z,23.17
2023-02-08T11:16:07.150Z,18.85
2023-02-08T11:21:21.805Z,17.55
2023-02-08T11:26:33.366Z,16.42
2023-02-08T11:31:37.528Z,17.27
2023-02-08T11:36:47.775Z,20.30
2023-02-08T11:41:55.161Z,16.42
2023-02-08T11:47:02.635Z,18.30
2023-02-08T11:52:06.869Z,18.92
2023-02-08T11:57:15.963Z,20.88
2023-02-08T12:02:36.933Z,17.30
2023-02-08T12:07:50.328Z,17.33
2023-02-08T12:13:22.719Z,18.98
2023-02-08T12:18:40.355Z,19.55
2023-02-08T12:23:50.249Z,20.00
2023-02-08T12:29:16.226Z,13.43
2023-02-08T12:34:26.686Z,16.48
2023-02-08T12:39:58.051Z,17.77
2023-02-08T12:45:32.696Z,16.35
2023-02-08T12:50:43.018Z,17.92
2023-02-08T12:55:49.883Z,18.00
2023-02-08T13:00:54.512Z,13.32
2023-02-08T13:06:02.421Z,14.98
2023-02-08T13:11:19.831Z,13.18
2023-02-08T13:16:26.217Z,15.43
2023-02-08T13:21:37.847Z,16.27
2023-02-08T13:26:41.822Z,16.05
2023-02-08T13:31:49.560Z,16.85
2023-02-08T13:36:57.340Z,15.23
2023-02-08T13:42:01.259Z,15.18
2023-02-08T13:47:05.863Z,15.75
2023-02-08T13:52:10.456Z,12.25
2023-02-08T13:57:51.243Z,13.35
2023-02-08T14:03:01.179Z,11.50
2023-02-08T14:08:08.276Z,13.55
2023-02-08T14:13:29.690Z,12.70
2023-02-08T14:18:32.583Z,13.52
2023-02-08T14:23:40.679Z,9.98
2023-02-08T14:28:48.759Z,10.80
2023-02-08T14:33:55.004Z,12.38
2023-02-08T14:39:26.181Z,7.68
2023-02-08T14:44:59.937Z,11.15
2023-02-08T14:50:06.695Z,12.25
2023-02-08T14:55:17.485Z,9.60
2023-02-08T15:00:25.426Z,10.63
2023-02-08T15:05:30.160Z,10.93
2023-02-08T15:10:35.144Z,11.48
2023-02-08T15:15:41.734Z,11.32
2023-02-08T15:20:45.194Z,10.52
2023-02-08T15:26:00.305Z,12.38
2023-02-08T15:31:06.127Z,9.65
2023-02-08T15:36:16.261Z,13.55
2023-02-08T15:41:28.244Z,12.32
2023-02-08T15:46:32.451Z,11.33
2023-02-08T15:51:35.373Z,12.18
2023-02-08T15:56:42.375Z,10.38
2023-02-08T16:01:47.769Z,9.52
2023-02-08T16:06:53.286Z,8.63
2023-02-08T16:12:00.340Z,13.95
2023-02-08T16:17:04.288Z,11.35
2023-02-08T16:22:26.539Z,9.82
2023-02-08T16:27:33.728Z,9.68
2023-02-08T16:32:39.666Z,8.07
2023-02-08T16:37:43.296Z,10.57
2023-02-08T16:42:47.533Z,11.05
2023-02-08T16:47:53.119Z,12.93
2023-02-08T16:53:00.205Z,25.55
2023-02-08T16:58:04.398Z,15.10
2023-02-08T17:03:07.205Z,14.20
2023-02-08T17:08:20.796Z,15.60
2023-02-08T17:13:27.004Z,12.25
2023-02-08T17:18:32.705Z,16.40
2023-02-08T17:23:38.008Z,15.18
2023-02-08T17:28:42.893Z,11.27
2023-02-08T17:33:45.987Z,15.45
2023-02-08T17:38:49.046Z,13.98
2023-02-08T17:43:54.830Z,19.65
2023-02-08T17:49:00.532Z,17.70
2023-02-08T17:54:04.854Z,14.57
2023-02-08T17:59:09.060Z,16.52
2023-02-08T18:04:13.264Z,14.10
2023-02-08T18:09:16.045Z,16.20
2023-02-08T18:14:20.328Z,15.85
2023-02-08T18:19:23.382Z,14.38
2023-02-08T18:24:26.191Z,36.83
2023-02-08T18:29:30.439Z,20.30
2023-02-08T18:39:36.445Z,19.17
2023-02-08T18:44:40.783Z,17.02
2023-02-08T18:49:43.655Z,19.42
2023-02-08T18:54:46.516Z,13.23
2023-02-08T18:59:50.847Z,13.95
2023-02-08T19:04:53.579Z,17.67
2023-02-08T19:09:56.378Z,21.38
2023-02-08T19:15:00.748Z,16.33
2023-02-08T19:20:03.978Z,19.75
2023-02-08T19:25:07.647Z,17.02
2023-02-08T19:30:15.594Z,24.10
2023-02-08T19:35:19.610Z,19.50
2023-02-08T19:40:24.187Z,19.67
2023-02-08T19:45:28.399Z,17.67
2023-02-08T19:50:31.211Z,18.92
2023-02-08T19:55:33.984Z,26.30
2023-02-08T20:00:38.115Z,25.10
2023-02-08T20:05:41.039Z,18.70
2023-02-08T20:10:45.811Z,19.98
2023-02-08T20:15:50.516Z,16.92
2023-02-08T20:21:01.098Z,19.75
2023-02-08T20:26:06.409Z,21.63
2023-02-08T20:31:12.541Z,21.23
2023-02-08T20:36:17.557Z,22.85
2023-02-08T20:41:21.619Z,20.90
2023-02-08T20:46:28.067Z,18.60
2023-02-08T20:51:31.352Z,21.35
2023-02-08T20:56:36.092Z,20.45
2023-02-08T21:01:40.298Z,21.25
2023-02-08T21:06:45.811Z,19.88
2023-02-08T21:11:48.997Z,19.98
2023-02-08T21:16:56.189Z,20.98
2023-02-08T21:22:01.338Z,17.92
2023-02-08T21:27:04.116Z,18.25
2023-02-08T21:32:08.307Z,17.83
2023-02-08T21:37:11.120Z,18.40
2023-02-08T21:42:13.926Z,22.02
2023-02-08T21:47:17.968Z,17.73
2023-02-08T21:52:38.397Z,20.10
2023-02-08T21:57:41.083Z,17.60
2023-02-08T22:02:45.182Z,18.63
2023-02-08T22:07:50.257Z,19.40
2023-02-08T22:12:54.989Z,20.83
2023-02-08T22:18:03.336Z,23.70
2023-02-08T22:23:06.272Z,21.20
2023-02-08T22:28:09.000Z,19.33
2023-02-08T22:33:13.081Z,22.33
2023-02-08T22:38:15.800Z,23.20
2023-02-08T22:43:18.577Z,24.45
2023-02-08T22:48:22.660Z,22.13
2023-02-08T22:53:25.499Z,23.25
2023-02-08T22:58:28.389Z,21.55
2023-02-08T23:03:32.939Z,27.45
2023-02-08T23:08:36.586Z,23.08
2023-02-08T23:13:39.766Z,32.03
2023-02-08T23:18:44.377Z,26.30
2023-02-08T23:23:49.324Z,25.30
2023-02-08T23:28:53.198Z,25.20
2023-02-08T23:33:57.314Z,21.90
2023-02-08T23:39:01.470Z,26.25
2023-02-08T23:44:04.712Z,24.48
2023-02-08T23:49:08.858Z,24.23
2023-02-08T23:54:11.590Z,25.00
2023-02-08T23:59:14.383Z,23.65
